Time;durP1;ratioP1;P1;durP2;ratioP2;P2;SDS_P1;SDS_P2;PMS_P1;PMS_P2;Temp;Humidity;BMP_temperature;BMP_pressure;BME280_temperature;BME280_humidity;BME280_pressure;Samples;Min_cycle;Max_cycle;Signal;HPM_P1;HPM_P2
2021/07/09 00:00:49;;;;;;;0.40;0.20;;;16.40;99.90;;;;;;5107280;28;20380;-81
2021/07/09 00:03:15;;;;;;;0.60;0.60;;;16.20;99.90;;;;;;5110705;28;20384;-81
2021/07/09 00:05:41;;;;;;;0.40;0.20;;;16.30;99.90;;;;;;5098990;28;20399;-83
2021/07/09 00:08:06;;;;;;;0.40;0.20;;;16.40;99.90;;;;;;5103649;28;20389;-80
2021/07/09 00:10:32;;;;;;;0.40;0.20;;;16.50;99.90;;;;;;5101099;28;20761;-80
2021/07/09 00:12:57;;;;;;;0.40;0.20;;;16.20;99.90;;;;;;5097314;28;20896;-80
2021/07/09 00:15:23;;;;;;;0.40;0.20;;;16.50;99.90;;;;;;5091205;28;20389;-80
2021/07/09 00:17:49;;;;;;;0.40;0.20;;;16.40;99.90;;;;;;5097782;28;20810;-80
2021/07/09 00:20:14;;;;;;;0.40;0.20;;;16.40;99.90;;;;;;5102902;28;20386;-76
2021/07/09 00:22:40;;;;;;;0.40;0.20;;;16.40;99.90;;;;;;5106484;28;20404;-77
2021/07/09 00:25:08;;;;;;;0.40;0.20;;;16.50;99.90;;;;;;5076141;28;20736;-78
2021/07/09 00:27:34;;;;;;;0.40;0.20;;;16.60;99.90;;;;;;5088974;28;20894;-79
2021/07/09 00:30:00;;;;;;;0.40;0.20;;;16.90;99.90;;;;;;5099409;28;20380;-78
2021/07/09 00:32:25;;;;;;;0.40;0.20;;;16.30;99.90;;;;;;5101075;28;20390;-79
2021/07/09 00:34:51;;;;;;;0.40;0.30;;;17.90;99.90;;;;;;5105730;28;20883;-77
2021/07/09 00:37:16;;;;;;;0.40;0.20;;;16.60;99.90;;;;;;5075786;28;20433;-77
2021/07/09 00:39:42;;;;;;;0.40;0.20;;;16.60;99.90;;;;;;5097774;28;20710;-77
2021/07/09 00:42:08;;;;;;;0.40;0.20;;;16.60;99.90;;;;;;5101816;28;20390;-81
2021/07/09 00:44:34;;;;;;;0.40;0.20;;;16.60;99.90;;;;;;5104055;28;20392;-78
2021/07/09 00:47:00;;;;;;;0.40;0.20;;;16.80;99.90;;;;;;5095432;28;20723;-78
2021/07/09 00:49:26;;;;;;;0.40;0.20;;;16.50;99.90;;;;;;5108021;28;20965;-81
2021/07/09 00:51:52;;;;;;;0.40;0.20;;;16.50;99.90;;;;;;5091855;28;20476;-80
2021/07/09 00:54:18;;;;;;;0.40;0.20;;;16.50;99.90;;;;;;5102312;28;20379;-79
2021/07/09 00:56:43;;;;;;;0.40;0.20;;;16.50;99.90;;;;;;5093675;28;20410;-80
2021/07/09 00:59:13;;;;;;;0.40;0.20;;;16.50;99.90;;;;;;5088930;28;20404;-80
2021/07/09 01:01:39;;;;;;;0.40;0.20;;;16.50;99.90;;;;;;5096954;28;20408;-79
2021/07/09 01:04:05;;;;;;;0.40;0.20;;;16.30;99.90;;;;;;5083834;28;21007;-77
2021/07/09 01:06:31;;;;;;;0.40;0.20;;;16.60;99.90;;;;;;5084997;28;20392;-79
2021/07/09 01:08:57;;;;;;;0.40;0.20;;;16.60;99.90;;;;;;5094733;28;20408;-78
2021/07/09 01:11:24;;;;;;;0.40;0.30;;;16.60;99.90;;;;;;5076326;28;20412;-76
2021/07/09 01:13:51;;;;;;;0.40;0.20;;;16.70;99.90;;;;;;5103793;28;20390;-76
2021/07/09 01:16:17;;;;;;;0.40;0.20;;;16.80;99.90;;;;;;5101484;28;20520;-77
2021/07/09 01:18:43;;;;;;;0.40;0.20;;;16.60;99.90;;;;;;5100294;28;20436;-78
2021/07/09 01:21:09;;;;;;;0.40;0.30;;;16.50;99.90;;;;;;5103090;28;20408;-77
2021/07/09 01:23:37;;;;;;;0.40;0.20;;;16.60;99.90;;;;;;5096186;28;20381;-78
2021/07/09 01:26:05;;;;;;;0.40;0.20;;;16.50;99.90;;;;;;5075230;28;20785;-78
2021/07/09 01:28:30;;;;;;;0.40;0.20;;;16.60;99.90;;;;;;5104580;28;20388;-78
2021/07/09 01:30:56;;;;;;;0.40;0.20;;;16.40;99.90;;;;;;5093318;28;20708;-79
2021/07/09 01:33:22;;;;;;;0.40;0.20;;;16.40;99.90;;;;;;5091330;28;20393;-78
2021/07/09 01:35:47;;;;;;;0.40;0.20;;;16.60;99.90;;;;;;5080897;28;20416;-80
2021/07/09 01:38:14;;;;;;;0.40;0.20;;;16.50;99.90;;;;;;5099508;28;20382;-78
2021/07/09 01:40:40;;;;;;;0.40;0.20;;;16.40;99.90;;;;;;5076529;28;20468;-77
2021/07/09 01:43:07;;;;;;;0.40;0.20;;;16.60;99.90;;;;;;5106454;28;20968;-77
2021/07/09 01:45:33;;;;;;;0.40;0.20;;;16.50;99.90;;;;;;5097486;28;20423;-78
2021/07/09 01:47:59;;;;;;;0.40;0.20;;;16.50;99.90;;;;;;5099920;28;20386;-77
2021/07/09 01:50:26;;;;;;;0.40;0.20;;;16.50;99.90;;;;;;5091199;28;20397;-76
2021/07/09 01:52:52;;;;;;;0.40;0.30;;;16.40;99.90;;;;;;5093567;28;20390;-78
2021/07/09 01:55:18;;;;;;;0.40;0.30;;;16.50;99.90;;;;;;5106531;28;20409;-78
2021/07/09 01:57:46;;;;;;;0.40;0.30;;;16.30;99.90;;;;;;5099210;28;20503;-77
2021/07/09 02:00:18;;;;;;;0.40;0.20;;;16.30;99.90;;;;;;5098901;28;20397;-78
2021/07/09 02:02:43;;;;;;;0.90;0.50;;;16.40;99.90;;;;;;5106624;28;20732;-79
2021/07/09 02:05:12;;;;;;;0.40;0.20;;;16.40;99.90;;;;;;5093314;28;20388;-78
2021/07/09 02:07:41;;;;;;;0.40;0.20;;;16.40;99.90;;;;;;5084305;28;20451;-77
2021/07/09 02:10:08;;;;;;;0.40;0.20;;;16.40;99.90;;;;;;5090965;28;21079;-78
2021/07/09 02:12:35;;;;;;;0.40;0.20;;;16.40;99.90;;;;;;5105242;28;20852;-78
2021/07/09 02:15:10;;;;;;;0.40;0.30;;;16.40;99.90;;;;;;5093146;28;20423;-78
2021/07/09 02:17:37;;;;;;;0.40;0.20;;;16.10;99.90;;;;;;5084335;28;20824;-77
2021/07/09 02:20:07;;;;;;;0.40;0.20;;;15.90;99.90;;;;;;5073247;28;20775;-78
2021/07/09 02:22:33;;;;;;;0.40;0.20;;;16.40;99.90;;;;;;5105653;28;20520;-78
2021/07/09 02:24:59;;;;;;;0.40;0.20;;;16.30;99.90;;;;;;5074873;28;20420;-78
2021/07/09 02:27:24;;;;;;;0.40;0.20;;;16.30;99.90;;;;;;5103638;28;20969;-78
2021/07/09 02:29:53;;;;;;;0.40;0.20;;;16.20;99.90;;;;;;5097808;28;20395;-79
2021/07/09 02:32:19;;;;;;;0.40;0.20;;;16.20;99.90;;;;;;5097317;28;20397;-78
2021/07/09 02:34:44;;;;;;;0.40;0.28;;;16.30;99.90;;;;;;5106417;28;20752;-78
2021/07/09 02:37:11;;;;;;;0.40;0.20;;;16.10;99.90;;;;;;5090175;28;20410;-78
2021/07/09 02:39:38;;;;;;;0.40;0.28;;;16.00;99.90;;;;;;5104818;28;20791;-78
2021/07/09 02:42:04;;;;;;;0.40;0.20;;;16.00;99.90;;;;;;5098795;28;20476;-79
2021/07/09 02:44:33;;;;;;;0.40;0.20;;;16.10;99.90;;;;;;5110327;28;20380;-79
2021/07/09 02:46:59;;;;;;;0.40;0.20;;;16.10;99.90;;;;;;5112493;28;20388;-78
2021/07/09 02:49:25;;;;;;;0.40;0.20;;;16.20;99.90;;;;;;5102793;28;20911;-81
2021/07/09 02:51:51;;;;;;;0.40;0.30;;;16.30;99.90;;;;;;5090537;28;20457;-79
2021/07/09 02:54:17;;;;;;;0.40;0.20;;;16.40;99.90;;;;;;5103999;28;20438;-77
2021/07/09 02:56:42;;;;;;;0.40;0.20;;;16.30;99.90;;;;;;5112476;28;20415;-78
2021/07/09 02:59:08;;;;;;;0.40;0.20;;;16.30;99.90;;;;;;5096103;28;20965;-78
2021/07/09 03:01:34;;;;;;;0.40;0.30;;;16.20;99.90;;;;;;5104011;28;20372;-78
2021/07/09 03:04:00;;;;;;;0.40;0.20;;;16.00;99.90;;;;;;5086673;28;20837;-78
2021/07/09 03:06:26;;;;;;;0.40;0.20;;;15.80;99.90;;;;;;5110739;28;20467;-78
2021/07/09 03:08:51;;;;;;;0.40;0.20;;;15.70;99.90;;;;;;5099352;28;20405;-79
2021/07/09 03:11:18;;;;;;;0.40;0.20;;;15.60;99.90;;;;;;5111256;28;20386;-78
2021/07/09 03:13:44;;;;;;;0.40;0.30;;;15.60;99.90;;;;;;5102171;28;20382;-78
2021/07/09 03:16:10;;;;;;;0.40;0.20;;;15.60;99.90;;;;;;5088953;28;20949;-78
2021/07/09 03:18:35;;;;;;;0.40;0.20;;;15.30;99.90;;;;;;5101202;28;20408;-77
2021/07/09 03:21:01;;;;;;;0.40;0.20;;;15.30;99.90;;;;;;5111630;28;20445;-78
2021/07/09 03:23:26;;;;;;;0.40;0.20;;;15.20;99.90;;;;;;5097321;28;20455;-78
2021/07/09 03:25:52;;;;;;;0.40;0.30;;;15.10;99.90;;;;;;5085516;28;20406;-78
2021/07/09 03:28:18;;;;;;;0.40;0.30;;;15.10;99.90;;;;;;5103934;28;20420;-78
2021/07/09 03:30:44;;;;;;;0.40;0.20;;;15.10;99.90;;;;;;5107217;28;20388;-78
2021/07/09 03:33:10;;;;;;;0.40;0.20;;;15.30;99.90;;;;;;5107313;28;20414;-78
2021/07/09 03:35:37;;;;;;;0.40;0.20;;;15.10;99.90;;;;;;5116382;28;20387;-77
2021/07/09 03:38:03;;;;;;;0.40;0.30;;;15.00;99.90;;;;;;5097447;28;20391;-78
2021/07/09 03:40:29;;;;;;;0.40;0.20;;;15.00;99.90;;;;;;5106025;28;20873;-77
2021/07/09 03:42:55;;;;;;;0.40;0.30;;;15.00;99.90;;;;;;5097641;28;20395;-79
2021/07/09 03:45:20;;;;;;;0.40;0.20;;;15.10;99.90;;;;;;5103547;28;20436;-78
2021/07/09 03:47:47;;;;;;;0.40;0.30;;;15.10;99.90;;;;;;5081963;28;20484;-82
2021/07/09 03:50:14;;;;;;;0.40;0.20;;;14.50;99.90;;;;;;5109292;28;20529;-79
2021/07/09 03:52:40;;;;;;;0.40;0.30;;;14.80;99.90;;;;;;5103563;28;20379;-78
2021/07/09 03:55:06;;;;;;;0.40;0.20;;;14.90;99.90;;;;;;5098007;28;21246;-78
2021/07/09 03:57:32;;;;;;;0.40;0.20;;;14.80;99.90;;;;;;5109765;28;20415;-78
2021/07/09 03:59:58;;;;;;;0.40;0.20;;;14.80;99.90;;;;;;5096389;28;20774;-77
2021/07/09 04:02:24;;;;;;;0.40;0.30;;;15.40;99.90;;;;;;5101089;28;20384;-78
2021/07/09 04:04:49;;;;;;;0.40;0.20;;;15.00;99.90;;;;;;5082553;28;20437;-80
2021/07/09 04:07:15;;;;;;;0.40;0.20;;;15.10;99.90;;;;;;5097268;28;20390;-78
2021/07/09 04:09:41;;;;;;;0.40;0.20;;;14.80;99.90;;;;;;5109451;28;20420;-78
2021/07/09 04:12:07;;;;;;;0.40;0.20;;;14.80;99.90;;;;;;5098482;28;20465;-79
2021/07/09 04:14:33;;;;;;;0.40;0.20;;;14.70;99.90;;;;;;5102916;28;20378;-78
2021/07/09 04:16:59;;;;;;;0.40;0.20;;;14.80;99.90;;;;;;5086904;28;20424;-78
2021/07/09 04:19:24;;;;;;;0.40;0.20;;;15.00;99.90;;;;;;5096185;28;20405;-78
2021/07/09 04:21:50;;;;;;;0.40;0.30;;;15.30;99.90;;;;;;5096601;28;20710;-80
2021/07/09 04:24:16;;;;;;;0.40;0.20;;;15.00;99.90;;;;;;5104542;28;20390;-79
2021/07/09 04:26:42;;;;;;;0.40;0.20;;;14.80;99.90;;;;;;5103522;28;20776;-78
2021/07/09 04:29:07;;;;;;;0.40;0.30;;;14.70;99.90;;;;;;5097682;28;20409;-78
2021/07/09 04:31:33;;;;;;;0.40;0.40;;;14.80;99.90;;;;;;5108725;28;20423;-78
2021/07/09 04:33:59;;;;;;;0.40;0.30;;;15.00;99.90;;;;;;5093771;28;20393;-78
2021/07/09 04:36:24;;;;;;;0.40;0.40;;;15.00;99.90;;;;;;5098034;28;20492;-77
2021/07/09 04:38:50;;;;;;;0.40;0.30;;;15.00;99.90;;;;;;5111962;28;20460;-80
2021/07/09 04:41:16;;;;;;;0.40;0.20;;;15.10;99.90;;;;;;5102910;28;20769;-78
2021/07/09 04:43:41;;;;;;;0.40;0.30;;;15.10;99.90;;;;;;5097140;28;20824;-78
2021/07/09 04:46:07;;;;;;;0.40;0.20;;;15.30;99.90;;;;;;5106481;28;20846;-78
2021/07/09 04:48:33;;;;;;;0.40;0.20;;;15.20;99.90;;;;;;5110014;28;20437;-78
2021/07/09 04:51:01;;;;;;;0.40;0.20;;;15.20;99.90;;;;;;5081674;28;20536;-78
2021/07/09 04:53:28;;;;;;;0.40;0.20;;;15.30;99.90;;;;;;5093468;28;20386;-78
2021/07/09 04:55:53;;;;;;;0.40;0.22;;;15.30;99.90;;;;;;5108449;28;20376;-79
2021/07/09 04:58:19;;;;;;;0.40;0.20;;;15.40;99.90;;;;;;5096103;28;20425;-78
2021/07/09 05:00:45;;;;;;;0.40;0.20;;;15.40;99.90;;;;;;5101155;28;20376;-78
2021/07/09 05:03:10;;;;;;;0.40;0.30;;;15.40;99.90;;;;;;5098559;28;20384;-78
2021/07/09 05:05:36;;;;;;;0.40;0.20;;;15.40;99.90;;;;;;5094306;28;20854;-78
2021/07/09 05:08:02;;;;;;;0.40;0.30;;;15.40;99.90;;;;;;5099477;28;20392;-79
2021/07/09 05:10:28;;;;;;;0.40;0.20;;;15.40;99.90;;;;;;5098468;28;20401;-80
2021/07/09 05:12:53;;;;;;;0.40;0.20;;;15.50;99.90;;;;;;5097186;28;20472;-83
2021/07/09 05:15:19;;;;;;;0.40;0.30;;;15.50;99.90;;;;;;5108191;28;20927;-84
2021/07/09 05:17:45;;;;;;;0.40;0.20;;;15.50;99.90;;;;;;5097204;28;20421;-84
2021/07/09 05:20:12;;;;;;;0.40;0.20;;;15.50;99.90;;;;;;5100270;28;20421;-84
2021/07/09 05:22:38;;;;;;;0.40;0.30;;;15.40;99.90;;;;;;5092682;28;20390;-84
2021/07/09 05:25:04;;;;;;;0.40;0.22;;;15.50;99.90;;;;;;5098842;28;20410;-82
2021/07/09 05:27:31;;;;;;;0.40;0.20;;;15.50;99.90;;;;;;5102471;28;20405;-82
2021/07/09 05:29:57;;;;;;;0.40;0.30;;;15.60;99.90;;;;;;5094115;28;20392;-82
2021/07/09 05:32:25;;;;;;;0.40;0.30;;;15.50;99.90;;;;;;5091758;28;20415;-82
2021/07/09 05:34:53;;;;;;;0.40;0.20;;;15.60;99.90;;;;;;5102900;28;20461;-83
2021/07/09 05:37:19;;;;;;;0.40;0.30;;;15.70;99.90;;;;;;5104254;28;20404;-83
2021/07/09 05:39:45;;;;;;;0.40;0.20;;;15.90;99.90;;;;;;5095477;28;20804;-83
2021/07/09 05:42:11;;;;;;;0.40;0.20;;;15.80;99.90;;;;;;5093589;28;20474;-83
2021/07/09 05:44:37;;;;;;;0.40;0.20;;;15.90;99.90;;;;;;5098846;28;20425;-83
2021/07/09 05:47:03;;;;;;;0.40;0.20;;;15.90;99.90;;;;;;5100305;28;20461;-83
2021/07/09 05:49:29;;;;;;;0.40;0.20;;;16.00;99.90;;;;;;5106065;28;20410;-83
2021/07/09 05:51:55;;;;;;;0.40;0.30;;;16.00;99.90;;;;;;5093504;28;20390;-83
2021/07/09 05:54:20;;;;;;;0.40;0.20;;;15.90;99.90;;;;;;5106116;28;20389;-83
2021/07/09 05:56:46;;;;;;;0.40;0.20;;;15.90;99.90;;;;;;5099675;28;20412;-83
2021/07/09 05:59:11;;;;;;;0.40;0.20;;;16.10;99.90;;;;;;5085562;28;21125;-84
2021/07/09 06:01:38;;;;;;;0.40;0.30;;;15.90;99.90;;;;;;5089788;28;20822;-83
2021/07/09 06:04:03;;;;;;;0.40;0.20;;;16.00;99.90;;;;;;5096043;28;20477;-83
2021/07/09 06:06:29;;;;;;;0.40;0.20;;;16.00;99.90;;;;;;5088157;28;20489;-83
2021/07/09 06:08:55;;;;;;;0.40;0.20;;;16.00;99.90;;;;;;5087368;28;20764;-83
2021/07/09 06:11:21;;;;;;;0.40;0.20;;;15.90;99.90;;;;;;5066891;28;20422;-83
2021/07/09 06:13:46;;;;;;;0.40;0.30;;;16.40;99.90;;;;;;5087225;28;20686;-83
2021/07/09 06:16:14;;;;;;;0.40;0.20;;;16.20;99.90;;;;;;5069013;28;20422;-83
2021/07/09 06:18:39;;;;;;;0.40;0.20;;;16.30;99.90;;;;;;5089328;28;20412;-83
2021/07/09 06:21:05;;;;;;;0.40;0.20;;;16.10;99.90;;;;;;5083811;28;20480;-84
2021/07/09 06:23:31;;;;;;;0.40;0.20;;;15.90;99.90;;;;;;5086978;28;20394;-83
2021/07/09 06:25:57;;;;;;;0.40;0.20;;;16.30;99.90;;;;;;5087260;28;20402;-84
2021/07/09 06:28:22;;;;;;;0.40;0.20;;;16.10;99.90;;;;;;5087741;28;20404;-83
2021/07/09 06:30:48;;;;;;;0.40;0.20;;;16.60;99.90;;;;;;5084706;28;20384;-83
2021/07/09 06:33:14;;;;;;;0.40;0.20;;;16.50;99.90;;;;;;5066474;28;20394;-84
2021/07/09 06:35:40;;;;;;;0.40;0.20;;;16.70;99.90;;;;;;5087252;28;20433;-83
2021/07/09 06:38:06;;;;;;;0.40;0.30;;;17.20;99.90;;;;;;5066214;28;20409;-83
2021/07/09 06:40:33;;;;;;;0.40;0.20;;;17.10;99.90;;;;;;5064618;28;20396;-85
2021/07/09 06:42:59;;;;;;;0.40;0.20;;;17.40;99.90;;;;;;5066177;28;20390;-87
2021/07/09 06:45:25;;;;;;;0.40;0.20;;;17.50;99.90;;;;;;5062060;28;20499;-84
2021/07/09 06:47:51;;;;;;;0.40;0.20;;;17.40;99.90;;;;;;5072154;28;20944;-83
2021/07/09 06:50:17;;;;;;;0.40;0.20;;;17.60;99.90;;;;;;5068558;28;21048;-84
2021/07/09 06:52:44;;;;;;;0.40;0.20;;;17.70;99.90;;;;;;5050626;28;20386;-85
2021/07/09 06:55:11;;;;;;;0.40;0.28;;;17.70;99.90;;;;;;5050945;28;20477;-83
2021/07/09 06:57:38;;;;;;;0.40;0.20;;;17.80;99.90;;;;;;5078531;28;20481;-84
2021/07/09 07:00:06;;;;;;;0.40;0.20;;;17.90;99.90;;;;;;5071042;28;20412;-85
2021/07/09 07:02:32;;;;;;;0.40;0.20;;;17.90;99.90;;;;;;5069993;28;20390;-87
2021/07/09 07:05:00;;;;;;;0.40;0.20;;;17.90;99.90;;;;;;5053209;28;20504;-85
2021/07/09 07:07:25;;;;;;;0.40;0.20;;;18.00;99.90;;;;;;5068929;28;20412;-87
2021/07/09 07:09:51;;;;;;;0.40;0.20;;;17.70;99.90;;;;;;5064816;28;20435;-85
2021/07/09 07:12:17;;;;;;;0.40;0.20;;;18.10;99.90;;;;;;5066277;28;20407;-84
2021/07/09 07:14:42;;;;;;;0.40;0.20;;;18.10;99.90;;;;;;5080471;28;20384;-83
2021/07/09 07:17:08;;;;;;;0.40;0.30;;;18.00;99.90;;;;;;5087388;28;20423;-83
2021/07/09 07:19:34;;;;;;;0.40;0.20;;;18.00;99.90;;;;;;5089200;28;20425;-83
2021/07/09 07:22:02;;;;;;;0.40;0.20;;;17.90;99.90;;;;;;5054546;28;20401;-84
2021/07/09 07:24:31;;;;;;;0.40;0.20;;;17.90;99.90;;;;;;5071220;28;20516;-82
2021/07/09 07:26:59;;;;;;;0.40;0.20;;;18.10;99.90;;;;;;5111838;28;20404;-84
2021/07/09 07:29:25;;;;;;;0.40;0.30;;;17.90;99.90;;;;;;5110575;28;20461;-81
2021/07/09 07:31:51;;;;;;;0.40;0.40;;;17.90;99.90;;;;;;5093767;28;20477;-82
2021/07/09 07:34:17;;;;;;;0.40;0.20;;;17.90;99.90;;;;;;5093719;28;20588;-83
2021/07/09 07:36:43;;;;;;;0.40;0.20;;;17.90;99.90;;;;;;5083348;28;20881;-83
2021/07/09 07:39:10;;;;;;;0.40;0.20;;;18.00;99.90;;;;;;5092789;28;20393;-82
2021/07/09 07:41:37;;;;;;;0.40;0.20;;;17.90;99.90;;;;;;5075833;28;20897;-81
2021/07/09 07:44:03;;;;;;;0.40;0.20;;;17.90;99.90;;;;;;5092530;28;20780;-83
2021/07/09 07:46:29;;;;;;;0.40;0.30;;;17.90;99.90;;;;;;5101241;28;20753;-84
2021/07/09 07:48:55;;;;;;;0.40;0.30;;;18.00;99.90;;;;;;5113393;28;20388;-85
2021/07/09 07:51:22;;;;;;;0.40;0.20;;;18.10;99.90;;;;;;5079942;28;20406;-82
2021/07/09 07:53:48;;;;;;;0.40;0.30;;;18.00;99.90;;;;;;5113383;28;20392;-85
2021/07/09 07:56:14;;;;;;;0.40;0.20;;;18.10;99.90;;;;;;5112897;28;20411;-83
2021/07/09 07:58:39;;;;;;;0.40;0.20;;;18.10;99.90;;;;;;5093635;28;20394;-84
2021/07/09 08:01:06;;;;;;;0.40;0.20;;;18.30;99.90;;;;;;5100339;28;20390;-84
2021/07/09 08:03:32;;;;;;;0.40;0.20;;;18.30;99.90;;;;;;5113948;28;20384;-86
2021/07/09 08:05:58;;;;;;;0.40;0.20;;;18.40;99.90;;;;;;5098316;28;20390;-84
2021/07/09 08:08:23;;;;;;;0.40;0.20;;;18.40;99.90;;;;;;5077301;28;20423;-83
2021/07/09 08:10:49;;;;;;;0.40;0.30;;;18.50;99.90;;;;;;5114363;28;20426;-80
2021/07/09 08:13:15;;;;;;;0.40;0.20;;;18.50;99.90;;;;;;5099507;28;20393;-83
2021/07/09 08:15:41;;;;;;;0.40;0.20;;;18.70;99.90;;;;;;5093408;28;20435;-84
2021/07/09 08:18:06;;;;;;;0.40;0.25;;;18.60;99.90;;;;;;5112717;28;20827;-83
2021/07/09 08:20:34;;;;;;;0.40;0.30;;;18.70;99.90;;;;;;5100934;28;20382;-84
2021/07/09 08:23:00;;;;;;;0.40;0.20;;;18.90;99.90;;;;;;5096722;28;20389;-85
2021/07/09 08:25:26;;;;;;;0.40;0.30;;;18.80;99.90;;;;;;5094951;28;20937;-83
2021/07/09 08:27:52;;;;;;;0.40;0.20;;;18.90;99.90;;;;;;5083827;28;20414;-85
2021/07/09 08:30:19;;;;;;;0.40;0.20;;;19.10;99.90;;;;;;5073625;28;20413;-85
2021/07/09 08:32:45;;;;;;;0.40;0.30;;;19.10;99.90;;;;;;5111921;28;20392;-83
2021/07/09 08:35:11;;;;;;;0.40;0.20;;;19.10;99.90;;;;;;5112438;28;20381;-84
2021/07/09 08:37:37;;;;;;;0.40;0.22;;;19.00;99.90;;;;;;5112775;28;20899;-84
2021/07/09 08:40:05;;;;;;;0.40;0.20;;;19.10;99.90;;;;;;5093317;28;20398;-86
2021/07/09 08:42:31;;;;;;;0.40;0.20;;;19.10;99.90;;;;;;5103076;28;20464;-81
2021/07/09 08:44:57;;;;;;;0.40;0.30;;;19.20;99.90;;;;;;5113149;28;20380;-84
2021/07/09 08:47:28;;;;;;;0.40;0.20;;;19.30;99.90;;;;;;5111195;28;20414;-82
2021/07/09 08:49:54;;;;;;;0.40;0.20;;;19.40;99.90;;;;;;5099769;28;20391;-84
2021/07/09 08:52:20;;;;;;;0.40;0.30;;;19.40;99.90;;;;;;5102373;28;20384;-82
2021/07/09 08:54:46;;;;;;;0.40;0.20;;;19.40;99.90;;;;;;5094880;28;20388;-82
2021/07/09 08:57:15;;;;;;;0.40;0.20;;;19.60;99.90;;;;;;5103746;28;20425;-83
2021/07/09 08:59:41;;;;;;;0.40;0.30;;;19.50;99.90;;;;;;5092470;28;20431;-82
2021/07/09 09:02:07;;;;;;;0.40;0.20;;;19.60;99.90;;;;;;5092324;28;20378;-84
2021/07/09 09:04:35;;;;;;;0.40;0.20;;;19.70;99.90;;;;;;5074556;28;20394;-82
2021/07/09 09:07:09;;;;;;;0.40;0.20;;;19.60;99.90;;;;;;5092596;28;20382;-81
2021/07/09 09:09:40;;;;;;;0.40;0.20;;;19.70;99.90;;;;;;5074308;28;20398;-82
2021/07/09 09:12:13;;;;;;;0.40;0.20;;;19.80;99.90;;;;;;5087297;28;21004;-84
2021/07/09 09:14:42;;;;;;;0.40;0.30;;;19.80;99.90;;;;;;5103859;28;20394;-82
2021/07/09 09:17:33;;;;;;;0.40;0.30;;;20.00;99.90;;;;;;5091854;28;20871;-84
2021/07/09 09:20:18;;;;;;;0.40;0.30;;;20.00;99.90;;;;;;5092307;28;20798;-84
2021/07/09 09:22:49;;;;;;;0.40;0.20;;;20.10;99.90;;;;;;5112176;28;20475;-82
2021/07/09 09:25:20;;;;;;;0.40;0.20;;;20.30;99.90;;;;;;5103116;28;20436;-82
2021/07/09 09:27:57;;;;;;;0.40;0.30;;;20.20;99.90;;;;;;5094609;28;20963;-82
2021/07/09 09:30:22;;;;;;;0.40;0.20;;;20.10;99.90;;;;;;5111512;28;20388;-82
2021/07/09 09:32:50;;;;;;;0.60;0.60;;;20.10;99.90;;;;;;5098320;28;20870;-83
2021/07/09 09:35:27;;;;;;;0.40;0.30;;;20.10;99.90;;;;;;5098013;28;20388;-80
2021/07/09 09:38:01;;;;;;;0.40;0.30;;;20.20;99.90;;;;;;5094236;28;20896;-83
2021/07/09 09:40:28;;;;;;;0.40;0.20;;;20.30;99.90;;;;;;5090969;28;20461;-84
2021/07/09 09:42:54;;;;;;;0.40;0.20;;;20.60;99.90;;;;;;5103882;28;20774;-82
2021/07/09 09:45:22;;;;;;;0.40;0.20;;;20.60;99.90;;;;;;5086794;28;20452;-83
2021/07/09 09:47:49;;;;;;;0.40;0.30;;;20.60;99.90;;;;;;5091930;28;20393;-84
2021/07/09 09:50:17;;;;;;;0.40;0.20;;;20.40;99.90;;;;;;5110278;28;20388;-83
2021/07/09 09:52:46;;;;;;;0.40;0.20;;;20.10;99.90;;;;;;5107509;28;20396;-82
2021/07/09 09:55:13;;;;;;;0.40;0.20;;;20.20;99.90;;;;;;5092981;28;20380;-83
2021/07/09 09:57:40;;;;;;;0.40;0.20;;;20.10;99.90;;;;;;5092822;28;20484;-82
2021/07/09 10:00:27;;;;;;;0.40;0.30;;;20.20;99.90;;;;;;5102761;28;20388;-82
2021/07/09 10:02:52;;;;;;;0.40;0.20;;;20.20;99.90;;;;;;5089183;28;20398;-83
2021/07/09 10:05:18;;;;;;;0.40;0.20;;;20.20;99.90;;;;;;5072485;28;20897;-83
2021/07/09 10:07:45;;;;;;;0.40;0.30;;;20.00;99.90;;;;;;5110413;28;20515;-82
2021/07/09 10:10:12;;;;;;;0.40;0.30;;;20.10;99.90;;;;;;5099380;28;20393;-84
2021/07/09 10:12:41;;;;;;;0.40;0.30;;;20.30;99.90;;;;;;5092718;28;20378;-84
2021/07/09 10:15:07;;;;;;;0.40;0.20;;;20.20;99.90;;;;;;5093462;28;20393;-83
2021/07/09 10:17:34;;;;;;;0.40;0.30;;;20.00;99.90;;;;;;5073626;28;20793;-83
2021/07/09 10:20:02;;;;;;;0.40;0.20;;;20.30;99.90;;;;;;5091559;28;20374;-83
2021/07/09 10:22:28;;;;;;;0.40;0.30;;;20.30;99.90;;;;;;5091338;28;20400;-82
2021/07/09 10:24:55;;;;;;;0.40;0.30;;;20.50;99.90;;;;;;5097624;28;20437;-83
2021/07/09 10:27:23;;;;;;;0.40;0.20;;;20.40;99.90;;;;;;5098493;28;20411;-84
2021/07/09 10:29:49;;;;;;;0.40;0.30;;;20.80;99.90;;;;;;5110368;28;20380;-83
2021/07/09 10:32:32;;;;;;;0.40;0.30;;;20.90;99.90;;;;;;5090579;28;20386;-83
2021/07/09 10:34:58;;;;;;;0.40;0.20;;;20.90;99.90;;;;;;5109737;28;20392;-86
2021/07/09 10:37:31;;;;;;;0.40;0.30;;;20.80;99.90;;;;;;5084175;28;20487;-82
2021/07/09 10:40:09;;;;;;;0.40;0.30;;;20.80;99.90;;;;;;5094845;28;20810;-83
2021/07/09 10:42:48;;;;;;;0.40;0.30;;;20.70;99.90;;;;;;5092947;28;20388;-83
2021/07/09 10:45:24;;;;;;;0.40;0.20;;;20.80;99.90;;;;;;5093001;28;20448;-83
2021/07/09 10:48:13;;;;;;;0.40;0.22;;;20.60;99.90;;;;;;5095963;28;20454;-83
2021/07/09 10:50:43;;;;;;;0.40;0.30;;;20.80;99.90;;;;;;5111424;28;20388;-83
2021/07/09 10:53:13;;;;;;;0.40;0.20;;;20.80;99.90;;;;;;5087517;28;20838;-82
2021/07/09 10:55:42;;;;;;;0.40;0.20;;;20.60;99.90;;;;;;5091301;28;20390;-83
2021/07/09 10:58:07;;;;;;;0.40;0.30;;;20.70;99.90;;;;;;5072782;28;20968;-82
2021/07/09 11:01:11;;;;;;;0.40;0.20;;;20.90;99.90;;;;;;5072933;28;20555;-83
2021/07/09 11:03:39;;;;;;;0.40;0.30;;;20.90;99.90;;;;;;5094586;28;20374;-83
2021/07/09 11:06:20;;;;;;;0.40;0.30;;;21.00;99.90;;;;;;5104194;28;20392;-83
2021/07/09 11:08:56;;;;;;;0.40;0.20;;;21.10;99.90;;;;;;5115379;28;20456;-83
2021/07/09 11:11:39;;;;;;;0.40;0.20;;;21.00;99.90;;;;;;5093805;28;20864;-83
2021/07/09 11:14:10;;;;;;;0.40;0.30;;;20.80;99.90;;;;;;5107602;28;20887;-83
2021/07/09 11:17:08;;;;;;;0.40;0.20;;;20.80;99.90;;;;;;5114867;28;20499;-83
2021/07/09 11:19:35;;;;;;;0.40;0.20;;;20.60;99.90;;;;;;5096188;28;21176;-83
2021/07/09 11:22:06;;;;;;;0.40;0.20;;;20.60;99.90;;;;;;5105019;28;20397;-83
2021/07/09 11:24:56;;;;;;;0.40;0.20;;;20.50;99.90;;;;;;5080513;28;21021;-83
2021/07/09 11:27:25;;;;;;;0.40;0.20;;;20.40;99.90;;;;;;5114133;28;20452;-83
2021/07/09 11:29:56;;;;;;;0.40;0.20;;;20.50;99.90;;;;;;5095931;28;20384;-83
2021/07/09 11:32:22;;;;;;;0.40;0.20;;;20.20;99.90;;;;;;5113847;28;20369;-83
2021/07/09 11:34:50;;;;;;;0.40;0.30;;;20.60;99.90;;;;;;5114795;28;20376;-83
2021/07/09 11:37:26;;;;;;;0.40;0.20;;;20.70;99.90;;;;;;5095610;28;21025;-84
2021/07/09 11:39:57;;;;;;;0.40;0.20;;;20.80;99.90;;;;;;5100122;28;20398;-83
2021/07/09 11:42:31;;;;;;;0.40;0.30;;;20.80;99.90;;;;;;5100692;28;20399;-83
2021/07/09 11:44:59;;;;;;;0.40;0.20;;;21.00;99.90;;;;;;5110783;28;20740;-83
2021/07/09 11:47:33;;;;;;;0.40;0.20;;;21.00;99.90;;;;;;5100722;28;20397;-83
2021/07/09 11:50:16;;;;;;;0.40;0.20;;;20.90;99.90;;;;;;5101238;28;20419;-81
2021/07/09 11:52:48;;;;;;;0.40;0.20;;;21.10;99.90;;;;;;5094491;28;20394;-83
2021/07/09 11:55:26;;;;;;;0.40;0.20;;;21.50;99.90;;;;;;5100035;28;20387;-84
2021/07/09 11:57:52;;;;;;;0.40;0.20;;;21.80;99.90;;;;;;5097701;28;20406;-82
2021/07/09 12:00:20;;;;;;;0.40;0.30;;;22.90;99.90;;;;;;5102166;28;20741;-83
2021/07/09 12:02:47;;;;;;;0.40;0.30;;;23.40;96.90;;;;;;5114245;28;20391;-82
2021/07/09 12:05:18;;;;;;;0.40;0.20;;;24.10;94.90;;;;;;5095494;28;20410;-80
2021/07/09 12:07:48;;;;;;;0.40;0.20;;;23.80;97.30;;;;;;5075939;28;20405;-80
2021/07/09 12:10:15;;;;;;;0.40;0.30;;;22.90;99.70;;;;;;5095949;28;20393;-83
2021/07/09 12:12:58;;;;;;;0.40;0.20;;;23.00;94.40;;;;;;5112690;28;20377;-80
2021/07/09 12:15:31;;;;;;;0.40;0.30;;;22.60;94.40;;;;;;5079250;28;20398;-81
2021/07/09 12:18:03;;;;;;;0.40;0.20;;;22.90;94.90;;;;;;5098418;28;20416;-81
2021/07/09 12:20:49;;;;;;;1.20;0.60;;;22.80;94.70;;;;;;5112863;28;20383;-80
2021/07/09 12:23:20;;;;;;;0.43;0.30;;;22.30;94.90;;;;;;5093687;28;20386;-81
2021/07/09 12:25:57;;;;;;;0.40;0.20;;;20.90;95.80;;;;;;5101745;28;20388;-82
2021/07/09 12:28:31;;;;;;;0.40;0.20;;;21.70;96.70;;;;;;5108781;28;20410;-78
2021/07/09 12:31:00;;;;;;;0.40;0.20;;;21.70;97.30;;;;;;5093312;28;20378;-80
2021/07/09 12:33:30;;;;;;;0.40;0.30;;;21.40;99.50;;;;;;5102448;28;20372;-82
2021/07/09 12:36:04;;;;;;;0.40;0.20;;;21.40;98.80;;;;;;5100157;28;20398;-77
2021/07/09 12:38:32;;;;;;;0.40;0.20;;;21.20;98.10;;;;;;5094514;28;20475;-78
2021/07/09 12:41:12;;;;;;;0.40;0.20;;;21.10;97.60;;;;;;5092868;28;20386;-79
2021/07/09 12:43:45;;;;;;;0.40;0.30;;;21.10;97.70;;;;;;5074255;28;20663;-79
2021/07/09 12:46:13;;;;;;;0.40;0.20;;;21.10;96.80;;;;;;5084170;28;20400;-80
2021/07/09 12:48:45;;;;;;;0.40;0.20;;;20.90;96.40;;;;;;5095669;28;20523;-79
2021/07/09 12:51:35;;;;;;;0.40;0.20;;;20.80;98.00;;;;;;5100751;28;20716;-79